Terminal Aerodrome Forecast
Issued by NWS

Home | Current Version | Previous Version | Text Only | Print | Product List | Glossary On
Versions: 1 2 3 4 5 6 7 8 9 10 11 12 13 14 15
000
FTUS42 KTBW 270500
TAFLAL
TAF
KLAL 270533Z 2706/2806 31005KT P6SM FEW035
     FM271700 30014G22KT P6SM SKC
     FM280200 29006KT P6SM FEW030
      AMD NOT SKED TIL 271200=

USA.gov is the U.S. government's official web portal to all federal, state and local government web resources and services.